createdAt,value
2022-09-28T00:00:30.756Z,16.80
2022-09-28T00:03:25.281Z,16.80
2022-09-28T00:06:22.539Z,16.80
2022-09-28T00:09:19.105Z,16.60
2022-09-28T00:12:13.529Z,16.60
2022-09-28T00:15:08.345Z,16.60
2022-09-28T00:18:02.817Z,16.70
2022-09-28T00:21:10.108Z,16.80
2022-09-28T00:24:26.675Z,16.90
2022-09-28T00:27:22.201Z,16.90
2022-09-28T00:30:17.668Z,17.00
2022-09-28T00:33:13.295Z,17.20
2022-09-28T00:36:07.771Z,17.30
2022-09-28T00:39:07.564Z,17.40
2022-09-28T00:42:02.162Z,17.50
2022-09-28T00:44:58.243Z,17.50
2022-09-28T00:47:58.319Z,17.50
2022-09-28T00:50:53.353Z,17.50
2022-09-28T00:53:48.306Z,17.50
2022-09-28T00:56:48.065Z,17.40
2022-09-28T00:59:43.533Z,17.50
2022-09-28T01:02:38.396Z,17.50
2022-09-28T01:05:33.430Z,17.60
2022-09-28T01:08:31.155Z,17.70
2022-09-28T01:11:26.100Z,17.80
2022-09-28T01:14:21.969Z,17.80
2022-09-28T01:17:19.471Z,17.80
2022-09-28T01:20:20.124Z,17.90
2022-09-28T01:23:34.864Z,17.90
2022-09-28T01:26:36.181Z,18.10
2022-09-28T01:29:46.741Z,18.20
2022-09-28T01:33:13.545Z,18.30
2022-09-28T01:36:11.914Z,18.30
2022-09-28T01:39:15.048Z,18.30
2022-09-28T01:42:25.645Z,18.30
2022-09-28T01:45:30.774Z,18.30
2022-09-28T01:48:56.066Z,18.40
2022-09-28T01:52:32.481Z,18.50
2022-09-28T01:55:35.830Z,18.70
2022-09-28T01:58:54.979Z,18.80
2022-09-28T02:02:03.557Z,18.80
2022-09-28T02:05:19.727Z,18.70
2022-09-28T02:08:14.551Z,18.50
2022-09-28T02:11:19.822Z,18.40
2022-09-28T02:14:18.285Z,18.30
2022-09-28T02:17:13.366Z,18.20
2022-09-28T02:20:08.783Z,18.20
2022-09-28T02:23:06.489Z,18.20
2022-09-28T02:26:12.085Z,18.30
2022-09-28T02:29:06.849Z,18.30
2022-09-28T02:32:01.789Z,18.40
2022-09-28T02:34:57.650Z,18.40
2022-09-28T02:37:52.598Z,18.40
2022-09-28T02:41:10.429Z,18.50
2022-09-28T02:44:26.142Z,18.60
2022-09-28T02:48:03.333Z,18.70
2022-09-28T02:51:04.324Z,18.80
2022-09-28T02:54:37.095Z,19.00
2022-09-28T02:57:42.337Z,19.20
2022-09-28T03:00:55.507Z,19.40
2022-09-28T03:03:59.251Z,19.40
2022-09-28T03:07:38.858Z,19.40
2022-09-28T03:10:42.392Z,19.30
2022-09-28T03:13:37.407Z,19.20
2022-09-28T03:16:33.475Z,19.20
2022-09-28T03:19:35.349Z,19.20
2022-09-28T03:22:30.014Z,19.20
2022-09-28T03:25:24.733Z,19.10
2022-09-28T03:28:19.319Z,19.20
2022-09-28T03:31:13.990Z,19.10
2022-09-28T03:34:08.652Z,19.20
2022-09-28T03:37:03.344Z,19.20
2022-09-28T03:39:58.063Z,19.20
2022-09-28T03:42:52.695Z,19.20
2022-09-28T03:45:54.579Z,19.20
2022-09-28T03:48:49.542Z,19.10
2022-09-28T03:51:44.557Z,19.00
2022-09-28T03:54:39.285Z,18.90
2022-09-28T03:57:33.863Z,18.80
2022-09-28T04:00:28.896Z,18.70
2022-09-28T04:03:23.513Z,18.60
2022-09-28T04:06:18.157Z,18.50
2022-09-28T04:09:13.610Z,18.40
2022-09-28T04:12:08.959Z,18.50
2022-09-28T04:15:03.583Z,18.60
2022-09-28T04:17:58.761Z,18.70
2022-09-28T04:21:10.300Z,18.90
2022-09-28T04:24:05.348Z,19.00
2022-09-28T04:27:19.585Z,19.00
2022-09-28T04:30:14.440Z,19.00
2022-09-28T04:33:08.961Z,19.00
2022-09-28T04:36:03.709Z,19.00
2022-09-28T04:38:58.889Z,19.00
2022-09-28T04:41:53.474Z,19.00
2022-09-28T04:44:47.996Z,19.10
2022-09-28T04:47:42.716Z,19.00
2022-09-28T04:50:37.419Z,19.00
2022-09-28T04:53:32.917Z,19.00
2022-09-28T04:56:27.524Z,19.10
2022-09-28T04:59:22.227Z,19.00
2022-09-28T05:02:16.859Z,19.10
2022-09-28T05:05:11.666Z,19.00
2022-09-28T05:08:06.203Z,19.00
2022-09-28T05:11:06.593Z,19.10
2022-09-28T05:14:01.215Z,19.20
2022-09-28T05:16:55.868Z,19.10
2022-09-28T05:19:50.573Z,19.10
2022-09-28T05:22:45.239Z,19.00
2022-09-28T05:25:40.367Z,18.90
2022-09-28T05:28:35.635Z,18.70
2022-09-28T05:31:30.446Z,18.60
2022-09-28T05:34:25.165Z,18.60
2022-09-28T05:37:19.805Z,18.60
2022-09-28T05:40:15.141Z,18.60
2022-09-28T05:43:09.950Z,18.50
2022-09-28T05:46:05.531Z,18.60
2022-09-28T05:49:01.602Z,18.60
2022-09-28T05:51:56.699Z,18.60
2022-09-28T05:54:51.283Z,18.60
2022-09-28T05:57:45.821Z,18.60
2022-09-28T06:00:40.527Z,18.50
2022-09-28T06:03:35.161Z,18.50
2022-09-28T06:06:29.773Z,18.40
2022-09-28T06:09:26.013Z,18.40
2022-09-28T06:12:21.324Z,18.40
2022-09-28T06:15:17.328Z,18.40
2022-09-28T06:18:16.313Z,18.50
2022-09-28T06:21:12.222Z,18.40
2022-09-28T06:24:07.404Z,18.30
2022-09-28T06:27:02.031Z,18.20
2022-09-28T06:29:56.569Z,18.20
2022-09-28T06:32:54.074Z,18.20
2022-09-28T06:35:49.098Z,18.20
2022-09-28T06:38:43.742Z,18.10
2022-09-28T06:41:38.240Z,18.20
2022-09-28T06:44:33.616Z,18.30
2022-09-28T06:47:28.152Z,18.30
2022-09-28T06:50:22.826Z,18.40
2022-09-28T06:53:17.630Z,18.40
2022-09-28T06:56:13.218Z,18.30
2022-09-28T06:59:07.748Z,18.40
2022-09-28T07:02:02.493Z,18.40
2022-09-28T07:04:57.115Z,18.40
2022-09-28T07:07:51.731Z,18.50
2022-09-28T07:10:48.733Z,18.40
2022-09-28T07:13:50.356Z,18.40
2022-09-28T07:17:10.113Z,18.50
2022-09-28T07:20:09.395Z,18.50
2022-09-28T07:23:18.059Z,18.40
2022-09-28T07:26:14.134Z,18.50
2022-09-28T07:29:08.898Z,18.40
2022-09-28T07:32:04.599Z,18.30
2022-09-28T07:34:59.286Z,18.20
2022-09-28T07:38:09.761Z,18.10
2022-09-28T07:41:13.158Z,18.10
2022-09-28T07:44:07.916Z,18.10
2022-09-28T07:47:03.881Z,18.00
2022-09-28T07:49:58.873Z,18.10
2022-09-28T07:52:53.423Z,18.00
2022-09-28T07:55:53.986Z,17.90
2022-09-28T07:58:50.629Z,17.80
2022-09-28T08:01:45.473Z,17.60
2022-09-28T08:04:40.552Z,17.60
2022-09-28T08:07:35.853Z,17.60
2022-09-28T08:10:30.711Z,17.60
2022-09-28T08:13:27.370Z,17.50
2022-09-28T08:16:22.268Z,17.40
2022-09-28T08:19:17.120Z,17.30
2022-09-28T08:22:11.859Z,17.20
2022-09-28T08:25:06.716Z,17.20
2022-09-28T08:28:02.037Z,17.20
2022-09-28T08:30:56.874Z,17.20
2022-09-28T08:33:55.014Z,17.20
2022-09-28T08:36:49.707Z,17.20
2022-09-28T08:39:44.462Z,17.10
2022-09-28T08:42:44.601Z,17.10
2022-09-28T08:45:39.220Z,17.00
2022-09-28T08:49:20.752Z,16.90
2022-09-28T08:52:18.506Z,17.00
2022-09-28T08:55:25.490Z,16.90
2022-09-28T08:58:29.512Z,16.70
2022-09-28T09:01:25.617Z,16.60
2022-09-28T09:04:20.556Z,16.60
2022-09-28T09:07:48.838Z,16.60
2022-09-28T09:11:04.336Z,16.50
2022-09-28T09:14:10.357Z,16.50
2022-09-28T09:17:24.917Z,16.50
2022-09-28T09:20:30.954Z,16.60
2022-09-28T09:23:54.374Z,16.60
2022-09-28T09:26:51.490Z,16.60
2022-09-28T09:30:08.634Z,16.60
2022-09-28T09:33:26.232Z,16.60
2022-09-28T09:36:52.744Z,16.50
2022-09-28T09:40:16.858Z,16.40
2022-09-28T09:43:33.175Z,16.40
2022-09-28T09:46:39.443Z,16.40
2022-09-28T09:49:51.274Z,16.40
2022-09-28T09:52:59.540Z,16.30
2022-09-28T09:56:09.833Z,16.20
2022-09-28T09:59:16.721Z,16.20
2022-09-28T10:02:36.042Z,16.20
2022-09-28T10:05:34.133Z,16.20
2022-09-28T10:08:30.199Z,16.20
2022-09-28T10:11:40.115Z,16.20
2022-09-28T10:14:34.610Z,16.10
2022-09-28T10:17:29.416Z,16.20
2022-09-28T10:20:24.508Z,16.20
2022-09-28T10:23:39.765Z,16.10
2022-09-28T10:26:41.005Z,16.10
2022-09-28T10:30:02.732Z,16.10
2022-09-28T10:33:00.696Z,16.00
2022-09-28T10:35:55.898Z,15.90
2022-09-28T10:38:51.341Z,15.90
2022-09-28T10:41:55.530Z,15.90
2022-09-28T10:44:58.158Z,15.90
2022-09-28T10:47:53.050Z,16.00
2022-09-28T10:51:05.540Z,16.00
2022-09-28T10:54:02.842Z,15.90
2022-09-28T10:56:57.927Z,15.90
2022-09-28T10:59:52.547Z,15.90
2022-09-28T11:02:47.107Z,15.90
2022-09-28T11:05:43.067Z,15.90
2022-09-28T11:08:41.099Z,15.80
2022-09-28T11:11:43.886Z,15.80
2022-09-28T11:14:42.850Z,15.90
2022-09-28T11:17:43.005Z,16.00
2022-09-28T11:20:37.663Z,15.90
2022-09-28T11:23:35.516Z,15.80
2022-09-28T11:26:42.184Z,15.70
2022-09-28T11:29:53.073Z,15.70
2022-09-28T11:32:48.777Z,15.80
2022-09-28T11:36:01.650Z,15.80
2022-09-28T11:39:10.690Z,15.70
2022-09-28T11:42:16.072Z,15.70
2022-09-28T11:45:25.920Z,15.70
2022-09-28T11:48:38.041Z,15.60
2022-09-28T11:51:37.947Z,15.40
2022-09-28T11:54:52.085Z,15.40
2022-09-28T11:57:52.283Z,15.40
2022-09-28T12:01:03.643Z,15.40
2022-09-28T12:04:27.365Z,15.40
2022-09-28T12:07:53.413Z,15.50
2022-09-28T12:10:58.388Z,15.40
2022-09-28T12:13:56.081Z,15.40
2022-09-28T12:17:20.796Z,15.50
2022-09-28T12:20:40.204Z,15.40
2022-09-28T12:23:37.309Z,15.40
2022-09-28T12:26:45.509Z,15.40
2022-09-28T12:30:01.339Z,15.40
2022-09-28T12:33:10.499Z,15.40
2022-09-28T12:36:15.149Z,15.30
2022-09-28T12:39:21.643Z,15.30
2022-09-28T12:42:40.469Z,15.30
2022-09-28T12:46:11.581Z,15.30
2022-09-28T12:53:20.491Z,15.30
2022-09-28T12:56:41.050Z,15.30
2022-09-28T12:59:41.520Z,15.20
2022-09-28T13:02:36.008Z,15.20
2022-09-28T13:05:57.123Z,15.20
2022-09-28T13:08:51.499Z,15.20
2022-09-28T13:11:50.715Z,15.10
2022-09-28T13:15:24.899Z,15.10
2022-09-28T13:18:31.391Z,15.10
2022-09-28T13:21:30.422Z,15.00
2022-09-28T13:24:32.738Z,15.00
2022-09-28T13:28:07.091Z,14.90
2022-09-28T13:31:03.573Z,14.90
2022-09-28T13:34:04.245Z,14.80
2022-09-28T13:37:23.329Z,14.70
2022-09-28T13:40:17.839Z,14.70
2022-09-28T13:43:31.005Z,14.70
2022-09-28T13:47:02.274Z,14.70
2022-09-28T13:50:38.053Z,14.70
2022-09-28T13:53:46.674Z,14.70
2022-09-28T13:57:26.667Z,14.60
2022-09-28T14:00:48.710Z,14.60
2022-09-28T14:03:58.499Z,14.50
2022-09-28T14:06:58.747Z,14.50
2022-09-28T14:10:25.852Z,14.40
2022-09-28T14:13:44.898Z,14.40
2022-09-28T14:16:41.011Z,14.40
2022-09-28T14:19:36.835Z,14.40
2022-09-28T14:23:02.162Z,14.40
2022-09-28T14:26:43.062Z,14.40
2022-09-28T14:29:40.109Z,14.30
2022-09-28T14:32:38.723Z,14.30
2022-09-28T14:35:42.582Z,14.20
2022-09-28T14:39:09.925Z,14.20
2022-09-28T14:42:11.822Z,14.20
2022-09-28T14:45:09.172Z,14.20
2022-09-28T14:48:16.502Z,14.20
2022-09-28T14:51:31.319Z,14.20
2022-09-28T14:54:28.473Z,14.20
2022-09-28T14:57:32.879Z,14.10
2022-09-28T15:00:31.706Z,14.10
2022-09-28T15:03:28.391Z,14.10
2022-09-28T15:06:26.008Z,14.10
2022-09-28T15:09:30.076Z,14.00
2022-09-28T15:12:31.665Z,14.00
2022-09-28T15:15:43.586Z,14.00
2022-09-28T15:18:51.587Z,14.00
2022-09-28T15:21:48.959Z,14.00
2022-09-28T15:25:02.200Z,14.00
2022-09-28T15:28:07.829Z,13.90
2022-09-28T15:31:04.761Z,13.90
2022-09-28T15:34:17.409Z,13.90
2022-09-28T15:37:13.145Z,13.90
2022-09-28T15:40:16.100Z,13.90
2022-09-28T15:43:34.346Z,13.80
2022-09-28T15:46:30.027Z,13.80
2022-09-28T15:49:38.903Z,13.80
2022-09-28T15:53:02.103Z,13.70
2022-09-28T15:56:03.276Z,13.60
2022-09-28T15:59:27.915Z,13.60
2022-09-28T16:02:27.343Z,13.50
2022-09-28T16:06:07.162Z,13.50
2022-09-28T16:09:01.598Z,13.40
2022-09-28T16:11:56.273Z,13.40
2022-09-28T16:14:56.081Z,13.40
2022-09-28T16:18:04.336Z,13.40
2022-09-28T16:21:22.557Z,13.30
2022-09-28T16:24:27.929Z,13.30
2022-09-28T16:27:42.755Z,13.20
2022-09-28T16:30:37.560Z,13.10
2022-09-28T16:33:42.026Z,13.10
2022-09-28T16:36:46.897Z,13.00
2022-09-28T16:39:41.506Z,13.10
2022-09-28T16:42:35.991Z,13.00
2022-09-28T16:45:30.863Z,13.00
2022-09-28T16:48:31.962Z,12.90
2022-09-28T16:51:26.571Z,12.90
2022-09-28T16:54:41.659Z,12.90
2022-09-28T16:57:36.410Z,12.80
2022-09-28T17:00:31.244Z,12.80
2022-09-28T17:03:27.261Z,12.80
2022-09-28T17:06:26.513Z,12.80
2022-09-28T17:09:21.681Z,12.80
2022-09-28T17:12:24.098Z,12.70
2022-09-28T17:15:20.818Z,12.70
2022-09-28T17:18:20.047Z,12.70
2022-09-28T17:21:22.691Z,12.70
2022-09-28T17:24:17.290Z,12.60
2022-09-28T17:27:18.124Z,12.60
2022-09-28T17:30:14.668Z,12.50
2022-09-28T17:33:10.767Z,12.50
2022-09-28T17:36:06.255Z,12.50
2022-09-28T17:39:01.600Z,12.40
2022-09-28T17:41:57.127Z,12.40
2022-09-28T17:44:51.783Z,12.40
2022-09-28T17:47:46.683Z,12.40
2022-09-28T17:50:46.146Z,12.40
2022-09-28T17:53:40.984Z,12.30
2022-09-28T17:56:37.772Z,12.30
2022-09-28T17:59:32.613Z,12.20
2022-09-28T18:02:27.138Z,12.10
2022-09-28T18:05:21.926Z,12.10
2022-09-28T18:08:20.558Z,12.10
2022-09-28T18:11:14.883Z,12.10
2022-09-28T18:14:11.204Z,12.10
2022-09-28T18:17:06.313Z,12.10
2022-09-28T18:20:00.923Z,12.10
2022-09-28T18:22:55.211Z,12.10
2022-09-28T18:25:51.574Z,12.00
2022-09-28T18:28:45.893Z,12.00
2022-09-28T18:31:40.191Z,12.00
2022-09-28T18:34:38.380Z,12.00
2022-09-28T18:37:33.173Z,12.00
2022-09-28T18:40:27.620Z,11.90
2022-09-28T18:43:22.008Z,11.90
2022-09-28T18:46:16.344Z,11.80
2022-09-28T18:49:10.860Z,11.80
2022-09-28T18:52:05.174Z,11.80
2022-09-28T18:55:02.323Z,11.80
2022-09-28T18:57:56.661Z,11.80
2022-09-28T19:00:51.382Z,11.70
2022-09-28T19:03:46.356Z,11.70
2022-09-28T19:06:43.024Z,11.70
2022-09-28T19:09:37.575Z,11.70
2022-09-28T19:12:32.327Z,11.70
2022-09-28T19:15:26.999Z,11.70
2022-09-28T19:18:22.172Z,11.60
2022-09-28T19:21:17.880Z,11.60
2022-09-28T19:24:16.787Z,11.60
2022-09-28T19:27:11.297Z,11.60
2022-09-28T19:30:06.394Z,11.60
2022-09-28T19:33:01.480Z,11.60
2022-09-28T19:36:04.338Z,11.50
2022-09-28T19:39:04.490Z,11.50
2022-09-28T19:42:01.052Z,11.40
2022-09-28T19:44:55.510Z,11.40
2022-09-28T19:47:51.283Z,11.40
2022-09-28T19:50:46.469Z,11.40
2022-09-28T19:53:42.419Z,11.40
2022-09-28T19:56:37.235Z,11.30
2022-09-28T19:59:31.733Z,11.30
2022-09-28T20:02:26.239Z,11.30
2022-09-28T20:05:20.776Z,11.30
2022-09-28T20:08:16.689Z,11.30
2022-09-28T20:11:11.237Z,11.30
2022-09-28T20:14:10.128Z,11.20
2022-09-28T20:17:04.946Z,11.10
2022-09-28T20:19:59.870Z,11.10
2022-09-28T20:22:56.468Z,11.10
2022-09-28T20:25:54.707Z,11.10
2022-09-28T20:28:49.258Z,11.10
2022-09-28T20:31:44.423Z,11.10
2022-09-28T20:34:38.853Z,11.10
2022-09-28T20:37:34.172Z,11.20
2022-09-28T20:40:29.451Z,11.20
2022-09-28T20:43:23.847Z,11.20
2022-09-28T20:46:20.143Z,11.10
2022-09-28T20:49:14.597Z,11.10
2022-09-28T20:52:09.033Z,11.10
2022-09-28T20:55:03.399Z,11.10
2022-09-28T20:57:57.768Z,11.10
2022-09-28T21:00:52.100Z,11.10
2022-09-28T21:03:55.153Z,11.20
2022-09-28T21:06:49.477Z,11.20
2022-09-28T21:09:43.861Z,11.30
2022-09-28T21:12:40.113Z,11.40
2022-09-28T21:15:35.392Z,11.50
2022-09-28T21:18:29.773Z,11.50
2022-09-28T21:21:25.169Z,11.60
2022-09-28T21:24:19.640Z,11.80
2022-09-28T21:27:14.080Z,11.80
2022-09-28T21:30:10.429Z,12.00
2022-09-28T21:33:04.816Z,12.10
2022-09-28T21:36:03.586Z,12.10
2022-09-28T21:38:58.512Z,12.20
2022-09-28T21:41:52.961Z,12.30
2022-09-28T21:44:47.365Z,12.40
2022-09-28T21:47:44.698Z,12.40
2022-09-28T21:50:39.062Z,12.50
2022-09-28T21:53:36.424Z,12.70
2022-09-28T21:56:30.880Z,12.80
2022-09-28T21:59:25.206Z,12.90
2022-09-28T22:02:19.679Z,13.20
2022-09-28T22:05:14.968Z,13.60
2022-09-28T22:08:10.070Z,14.80
2022-09-28T22:11:07.366Z,16.00
2022-09-28T22:14:01.818Z,17.40
2022-09-28T22:16:56.290Z,18.40
2022-09-28T22:19:50.716Z,19.40
2022-09-28T22:22:50.036Z,20.00
2022-09-28T22:25:44.429Z,20.50
2022-09-28T22:28:40.289Z,20.90
2022-09-28T22:31:37.555Z,22.20
2022-09-28T22:34:33.149Z,23.60
2022-09-28T22:37:29.332Z,24.10
2022-09-28T22:40:23.948Z,24.60
2022-09-28T22:43:19.005Z,24.80
2022-09-28T22:46:19.218Z,25.00
2022-09-28T22:49:14.706Z,24.70
2022-09-28T22:52:09.124Z,24.30
2022-09-28T22:55:03.733Z,23.70
2022-09-28T22:57:58.123Z,23.20
2022-09-28T23:00:52.837Z,22.50
2022-09-28T23:03:48.687Z,22.00
2022-09-28T23:06:43.161Z,22.00
2022-09-28T23:09:37.567Z,21.90
2022-09-28T23:12:32.025Z,21.60
2022-09-28T23:15:26.976Z,21.60
2022-09-28T23:18:21.499Z,21.50
2022-09-28T23:21:18.834Z,21.40
2022-09-28T23:24:13.416Z,21.30
2022-09-28T23:27:09.445Z,21.20
2022-09-28T23:30:04.015Z,21.20
2022-09-28T23:32:58.512Z,21.10
2022-09-28T23:35:53.034Z,21.00
2022-09-28T23:38:47.497Z,20.80
2022-09-28T23:41:41.984Z,20.50
2022-09-28T23:44:36.392Z,20.30
2022-09-28T23:47:30.930Z,20.30
2022-09-28T23:50:25.356Z,20.30
2022-09-28T23:53:19.840Z,20.20
2022-09-28T23:56:15.691Z,20.10
2022-09-28T23:59:10.106Z,19.90
